Satellite Precipitation Estimates (TXUS20 KWBC)
Issued by NWS

Current Version | Previous Version | Text Only | Print | Product List | Glossary On
Versions: 1 2
000
SPTD31 TTPP 182152
SPECI
TTCP 182144Z 12003G12KT 2000 -SHRA FEW014TCU 30/24 Q1009 BECMG 2215Z
9999 VCSH
RMK TCU SE=



USA.gov is the U.S. government's official web portal to all federal, state and local government web resources and services.